createdAt,value
2019-02-27T00:05:03.330Z,23.4
2019-02-27T00:20:04.945Z,23.4
2019-02-27T00:35:06.062Z,23.4
2019-02-27T00:50:05.958Z,23.4
2019-02-27T01:05:02.986Z,23.4
2019-02-27T01:20:03.158Z,23.4
2019-02-27T01:35:02.716Z,23.4
2019-02-27T01:50:03.359Z,23.4
2019-02-27T02:05:03.080Z,23.4
2019-02-27T02:20:02.760Z,23.3
2019-02-27T02:35:03.606Z,23.2
2019-02-27T02:50:03.706Z,23.2
2019-02-27T03:05:03.394Z,23.1
2019-02-27T03:20:03.240Z,23.1
2019-02-27T03:35:02.852Z,23.1
2019-02-27T03:50:02.909Z,23.1
2019-02-27T04:05:06.814Z,23.1
2019-02-27T04:20:03.757Z,23.1
2019-02-27T04:35:05.830Z,23.1
2019-02-27T04:50:04.113Z,23
2019-02-27T05:05:02.995Z,23
2019-02-27T05:20:03.331Z,23
2019-02-27T05:35:03.427Z,23
2019-02-27T05:50:03.586Z,23
2019-02-27T06:05:03.618Z,23.1
2019-02-27T06:20:07.595Z,23.1
2019-02-27T06:35:03.373Z,23.2
2019-02-27T06:50:04.131Z,23.3
2019-02-27T07:05:05.793Z,23.4
2019-02-27T07:20:04.717Z,23.5
2019-02-27T07:35:03.707Z,23.6
2019-02-27T07:50:05.933Z,23.7
2019-02-27T08:05:03.354Z,23.9
2019-02-27T08:20:03.983Z,23.9
2019-02-27T08:35:03.854Z,24
2019-02-27T08:50:02.947Z,24.1
2019-02-27T09:05:03.296Z,24.2
2019-02-27T09:20:03.573Z,24.2
2019-02-27T09:35:04.319Z,24.3
2019-02-27T09:50:03.655Z,24.3
2019-02-27T10:05:03.655Z,24.4
2019-02-27T10:20:02.978Z,24.4
2019-02-27T10:35:03.150Z,24.5
2019-02-27T10:50:03.230Z,24.5
2019-02-27T11:05:03.113Z,24.5
2019-02-27T11:20:02.824Z,24.6
2019-02-27T11:35:03.757Z,24.6
2019-02-27T11:50:04.170Z,24.6
2019-02-27T12:05:03.684Z,24.7
2019-02-27T12:20:04.236Z,24.7
2019-02-27T12:35:03.545Z,24.7
2019-02-27T12:50:03.295Z,24.7
2019-02-27T13:05:03.045Z,24.7
2019-02-27T13:20:03.139Z,24.8
2019-02-27T13:35:03.569Z,24.9
2019-02-27T13:50:03.493Z,24.9
2019-02-27T14:05:03.700Z,24.9
2019-02-27T14:20:05.259Z,24.9
2019-02-27T14:35:03.438Z,24.9
2019-02-27T14:50:04.003Z,24.9
2019-02-27T15:05:05.648Z,24.9
2019-02-27T15:20:05.537Z,25
2019-02-27T15:35:04.732Z,25.1
2019-02-27T15:50:03.350Z,25.1
2019-02-27T16:05:03.283Z,25.1
2019-02-27T16:35:04.277Z,25.1
2019-02-27T16:50:03.388Z,25
2019-02-27T17:05:05.676Z,24.9
2019-02-27T17:20:03.341Z,24.7
2019-02-27T17:35:03.886Z,24.5
2019-02-27T17:50:03.036Z,24.4
2019-02-27T18:05:02.864Z,24.3
2019-02-27T18:20:03.707Z,24.2
2019-02-27T18:35:03.751Z,24
2019-02-27T18:50:04.133Z,23.9
2019-02-27T19:05:02.961Z,23.8
2019-02-27T19:20:03.653Z,23.7
2019-02-27T19:35:03.529Z,23.6
2019-02-27T19:50:04.164Z,23.5
2019-02-27T20:05:02.954Z,23.4
2019-02-27T20:20:04.063Z,23.4
2019-02-27T20:35:03.155Z,23.3
2019-02-27T20:50:03.749Z,23.3
2019-02-27T21:05:03.551Z,23.2
2019-02-27T21:20:04.081Z,23.1
2019-02-27T21:35:02.896Z,23.1
2019-02-27T21:50:03.585Z,23
2019-02-27T22:05:03.012Z,23
2019-02-27T22:20:04.087Z,23.1
2019-02-27T22:35:04.028Z,23.1
2019-02-27T22:50:05.814Z,23.2
2019-02-27T23:05:04.755Z,23.3
2019-02-27T23:20:03.223Z,23.3
2019-02-27T23:35:02.916Z,23.3
2019-02-27T23:50:02.841Z,23.4
